createdAt,value
2019-05-28T00:01:02.182Z,100.00
2019-05-28T00:03:51.971Z,100.00
2019-05-28T00:06:22.496Z,100.00
2019-05-28T00:09:12.294Z,100.00
2019-05-28T00:12:02.195Z,100.00
2019-05-28T00:14:52.149Z,100.00
2019-05-28T00:17:22.660Z,100.00
2019-05-28T00:23:22.565Z,100.00
2019-05-28T00:26:12.411Z,100.00
2019-05-28T00:29:02.265Z,100.00
2019-05-28T00:31:34.328Z,100.00
2019-05-28T00:34:26.146Z,100.00
2019-05-28T00:36:56.943Z,100.00
2019-05-28T00:39:46.810Z,100.00
2019-05-28T00:42:36.616Z,100.00
2019-05-28T00:45:26.439Z,99.87
2019-05-28T00:47:56.879Z,98.98
2019-05-28T00:50:46.754Z,98.65
2019-05-28T00:53:36.654Z,98.43
2019-05-28T00:56:26.570Z,98.58
2019-05-28T00:59:16.687Z,98.75
2019-05-28T01:02:06.531Z,98.78
2019-05-28T01:04:37.028Z,98.75
2019-05-28T01:07:26.873Z,98.57
2019-05-28T01:10:16.809Z,98.62
2019-05-28T01:13:06.864Z,98.75
2019-05-28T01:15:56.640Z,98.42
2019-05-28T01:18:46.485Z,98.43
2019-05-28T01:21:36.271Z,98.63
2019-05-28T01:24:26.190Z,98.45
2019-05-28T01:27:15.971Z,98.06
2019-05-28T01:32:55.820Z,97.93
2019-05-28T01:35:45.699Z,98.17
2019-05-28T01:38:35.485Z,98.31
2019-05-28T01:41:25.310Z,98.64
2019-05-28T01:43:55.778Z,98.62
2019-05-28T01:46:45.573Z,98.52
2019-05-28T01:49:35.345Z,98.75
2019-05-28T01:52:25.143Z,98.90
2019-05-28T01:55:14.975Z,99.11
2019-05-28T01:58:04.811Z,99.09
2019-05-28T02:01:09.502Z,98.75
2019-05-28T02:03:37.836Z,98.87
2019-05-28T02:06:27.637Z,99.07
2019-05-28T02:09:17.413Z,99.33
2019-05-28T02:12:07.211Z,99.39
2019-05-28T02:14:56.985Z,99.46
2019-05-28T02:17:46.765Z,99.42
2019-05-28T02:20:36.562Z,99.75
2019-05-28T02:23:26.435Z,100.00
2019-05-28T02:26:16.268Z,100.00
2019-05-28T02:29:06.289Z,100.00
2019-05-28T02:31:56.104Z,100.00
2019-05-28T02:34:45.871Z,100.00
2019-05-28T02:37:35.684Z,100.00
2019-05-28T02:40:25.547Z,99.75
2019-05-28T02:43:15.335Z,99.59
2019-05-28T02:46:05.248Z,99.57
2019-05-28T02:48:55.030Z,99.78
2019-05-28T02:51:44.825Z,100.00
2019-05-28T02:54:34.615Z,100.00
2019-05-28T03:07:05.417Z,100.00
2019-05-28T03:12:59.282Z,100.00
2019-05-28T03:25:06.174Z,100.00
2019-05-28T03:27:56.010Z,100.00
2019-05-28T03:30:45.801Z,100.00
2019-05-28T03:33:35.570Z,100.00
2019-05-28T03:37:04.996Z,100.00
2019-05-28T03:45:59.430Z,100.00
2019-05-28T03:48:49.461Z,100.00
2019-05-28T03:51:39.255Z,100.00
2019-05-28T03:54:29.034Z,99.64
2019-05-28T03:56:59.501Z,99.12
2019-05-28T03:59:49.270Z,98.67
2019-05-28T04:02:39.109Z,98.24
2019-05-28T04:05:29.128Z,97.89
2019-05-28T04:08:18.979Z,97.48
2019-05-28T04:11:08.810Z,97.31
2019-05-28T04:13:58.728Z,97.33
2019-05-28T04:16:33.936Z,97.45
2019-05-28T04:19:23.712Z,97.17
2019-05-28T04:22:13.525Z,96.89
2019-05-28T04:25:03.316Z,96.73
2019-05-28T04:27:53.150Z,96.60
2019-05-28T04:30:23.624Z,96.53
2019-05-28T04:33:13.413Z,95.54
2019-05-28T04:36:03.199Z,94.82
2019-05-28T04:38:52.962Z,93.62
2019-05-28T04:41:23.498Z,93.59
2019-05-28T04:44:13.283Z,93.14
2019-05-28T04:47:03.068Z,92.88
2019-05-28T04:49:52.848Z,92.00
2019-05-28T04:52:23.416Z,91.72
2019-05-28T04:55:13.446Z,90.87
2019-05-28T04:58:03.247Z,90.70
2019-05-28T05:00:53.072Z,89.85
2019-05-28T05:03:23.451Z,89.21
2019-05-28T05:06:13.571Z,87.97
2019-05-28T05:09:03.595Z,87.49
2019-05-28T05:11:53.354Z,87.02
2019-05-28T05:14:23.724Z,86.03
2019-05-28T05:17:13.505Z,84.90
2019-05-28T05:20:03.326Z,83.60
2019-05-28T05:22:53.105Z,82.47
2019-05-28T05:25:23.611Z,81.68
2019-05-28T05:28:13.422Z,81.08
2019-05-28T05:31:03.222Z,80.73
2019-05-28T05:33:52.982Z,79.97
2019-05-28T05:36:23.369Z,79.25
2019-05-28T05:39:13.185Z,78.47
2019-05-28T05:42:03.088Z,77.45
2019-05-28T05:44:52.896Z,76.58
2019-05-28T05:47:23.347Z,76.14
2019-05-28T05:50:13.251Z,75.70
2019-05-28T05:53:03.027Z,75.49
2019-05-28T05:55:52.831Z,76.21
2019-05-28T05:58:23.307Z,76.07
2019-05-28T06:00:55.573Z,76.15
2019-05-28T06:03:45.363Z,76.39
2019-05-28T06:06:35.194Z,76.94
2019-05-28T06:09:25.022Z,76.86
2019-05-28T06:12:14.818Z,76.95
2019-05-28T06:15:04.758Z,77.08
2019-05-28T06:17:54.541Z,76.94
2019-05-28T06:20:44.440Z,77.09
2019-05-28T06:23:34.234Z,76.81
2019-05-28T06:26:24.027Z,76.85
2019-05-28T06:29:13.881Z,77.70
2019-05-28T06:32:03.660Z,79.77
2019-05-28T06:34:34.128Z,81.22
2019-05-28T06:37:26.243Z,82.89
2019-05-28T06:40:16.204Z,84.87
2019-05-28T06:43:06.044Z,85.72
2019-05-28T06:45:55.863Z,86.61
2019-05-28T06:48:46.416Z,86.54
2019-05-28T06:51:36.209Z,87.18
2019-05-28T06:54:25.988Z,88.17
2019-05-28T06:57:22.898Z,89.12
2019-05-28T07:03:28.911Z,91.39
2019-05-28T07:06:18.719Z,92.01
2019-05-28T07:09:08.721Z,93.05
2019-05-28T07:11:58.480Z,93.87
2019-05-28T07:14:48.342Z,94.51
2019-05-28T07:17:38.150Z,95.27
2019-05-28T07:20:27.978Z,95.20
2019-05-28T07:23:17.736Z,95.77
2019-05-28T07:26:07.538Z,96.29
2019-05-28T07:28:57.317Z,96.47
2019-05-28T07:31:47.106Z,97.02
2019-05-28T07:34:36.889Z,96.77
2019-05-28T07:37:26.677Z,97.12
2019-05-28T07:40:30.201Z,96.81
2019-05-28T07:42:54.149Z,95.55
2019-05-28T07:45:43.918Z,95.38
2019-05-28T07:48:33.753Z,95.47
2019-05-28T07:51:23.612Z,95.66
2019-05-28T07:54:13.447Z,95.72
2019-05-28T07:57:03.222Z,95.16
2019-05-28T07:59:52.982Z,94.83
2019-05-28T08:02:23.353Z,95.53
2019-05-28T08:05:16.998Z,96.55
2019-05-28T08:11:07.407Z,97.50
2019-05-28T08:13:57.253Z,98.08
2019-05-28T08:16:52.681Z,99.12
2019-05-28T08:19:38.565Z,99.81
2019-05-28T08:22:41.903Z,100.00
2019-05-28T08:25:33.425Z,100.00
2019-05-28T08:28:18.758Z,100.00
2019-05-28T08:30:48.354Z,100.00
2019-05-28T08:33:38.154Z,100.00
2019-05-28T08:36:28.076Z,100.00
2019-05-28T08:39:17.873Z,100.00
2019-05-28T08:42:07.652Z,100.00
2019-05-28T08:44:38.063Z,100.00
2019-05-28T08:47:27.847Z,100.00
2019-05-28T08:50:33.087Z,99.62
2019-05-28T08:53:09.288Z,99.39
2019-05-28T08:55:59.142Z,100.00
2019-05-28T08:58:49.264Z,100.00
2019-05-28T09:01:39.193Z,100.00
2019-05-28T09:04:29.061Z,100.00
2019-05-28T09:07:18.891Z,100.00
2019-05-28T09:10:08.839Z,100.00
2019-05-28T09:12:58.649Z,100.00
2019-05-28T09:15:48.610Z,100.00
2019-05-28T09:18:38.384Z,100.00
2019-05-28T09:21:28.279Z,100.00
2019-05-28T09:24:18.056Z,100.00
2019-05-28T09:27:07.876Z,100.00
2019-05-28T09:29:57.669Z,99.01
2019-05-28T09:32:47.566Z,97.78
2019-05-28T09:35:44.588Z,96.95
2019-05-28T09:38:20.400Z,95.72
2019-05-28T09:41:10.157Z,95.73
2019-05-28T09:43:59.964Z,95.56
2019-05-28T09:46:49.755Z,96.20
2019-05-28T09:49:20.338Z,96.34
2019-05-28T09:52:10.164Z,96.01
2019-05-28T09:54:59.963Z,94.61
2019-05-28T09:57:49.843Z,94.47
2019-05-28T10:00:56.703Z,94.21
2019-05-28T10:03:17.572Z,94.13
2019-05-28T10:06:17.052Z,93.86
2019-05-28T10:08:59.133Z,94.85
2019-05-28T10:11:48.933Z,94.20
2019-05-28T10:14:38.697Z,93.48
2019-05-28T10:17:09.190Z,94.01
2019-05-28T10:19:59.007Z,93.27
2019-05-28T10:22:29.413Z,92.33
2019-05-28T10:25:19.362Z,91.56
2019-05-28T10:28:09.153Z,90.00
2019-05-28T10:30:58.915Z,88.62
2019-05-28T10:33:48.693Z,87.15
2019-05-28T10:36:38.498Z,85.97
2019-05-28T10:39:28.280Z,84.85
2019-05-28T10:42:18.073Z,82.34
2019-05-28T10:45:08.344Z,80.82
2019-05-28T10:47:41.205Z,81.36
2019-05-28T10:50:30.978Z,81.40
2019-05-28T10:53:20.837Z,81.14
2019-05-28T10:56:10.864Z,78.95
2019-05-28T10:58:41.440Z,76.90
2019-05-28T11:01:31.756Z,76.43
2019-05-28T11:04:21.537Z,75.75
2019-05-28T11:07:11.336Z,74.40
2019-05-28T11:09:41.732Z,73.48
2019-05-28T11:12:31.527Z,71.71
2019-05-28T11:18:45.914Z,70.38
2019-05-28T11:21:35.736Z,67.81
2019-05-28T11:24:25.555Z,66.46
2019-05-28T11:27:15.307Z,63.00
2019-05-28T11:30:44.549Z,63.25
2019-05-28T11:33:34.439Z,62.47
2019-05-28T11:36:24.241Z,61.28
2019-05-28T11:39:14.117Z,59.49
2019-05-28T11:41:44.523Z,59.04
2019-05-28T11:44:34.306Z,59.03
2019-05-28T11:47:24.262Z,57.55
2019-05-28T11:50:14.125Z,55.15
2019-05-28T11:52:44.704Z,55.40
2019-05-28T11:55:34.487Z,55.92
2019-05-28T11:58:24.291Z,54.06
2019-05-28T12:01:32.746Z,54.35
2019-05-28T12:03:51.643Z,52.80
2019-05-28T12:06:41.655Z,53.65
2019-05-28T12:09:31.475Z,55.58
2019-05-28T12:12:21.246Z,56.49
2019-05-28T12:14:51.787Z,56.78
2019-05-28T12:17:45.041Z,56.70
2019-05-28T12:23:13.454Z,58.20
2019-05-28T12:26:03.258Z,61.05
2019-05-28T12:28:53.018Z,63.34
2019-05-28T12:31:23.547Z,62.86
2019-05-28T12:33:53.916Z,63.27
2019-05-28T12:36:24.399Z,64.62
2019-05-28T12:39:14.121Z,64.23
2019-05-28T12:42:07.213Z,64.20
2019-05-28T12:44:46.835Z,62.89
2019-05-28T12:47:36.628Z,65.72
2019-05-28T12:50:26.491Z,67.12
2019-05-28T12:52:56.923Z,71.48
2019-05-28T12:55:46.775Z,73.72
2019-05-28T12:58:42.538Z,74.95
2019-05-28T13:01:28.232Z,80.41
2019-05-28T13:04:18.117Z,84.61
2019-05-28T13:07:07.959Z,87.00
2019-05-28T13:09:57.753Z,87.02
2019-05-28T13:12:47.673Z,88.21
2019-05-28T13:15:42.014Z,88.37
2019-05-28T13:18:20.810Z,88.01
2019-05-28T13:21:11.058Z,89.40
2019-05-28T13:24:01.026Z,88.61
2019-05-28T13:26:50.936Z,89.89
2019-05-28T13:29:40.727Z,88.96
2019-05-28T13:32:30.526Z,89.25
2019-05-28T13:35:20.417Z,88.96
2019-05-28T13:37:51.061Z,85.96
2019-05-28T13:40:40.852Z,86.12
2019-05-28T13:43:31.016Z,85.77
2019-05-28T13:46:02.109Z,84.58
2019-05-28T13:48:51.930Z,83.60
2019-05-28T13:51:41.715Z,83.60
2019-05-28T13:54:12.198Z,81.98
2019-05-28T13:57:02.013Z,81.39
2019-05-28T13:59:58.428Z,82.63
2019-05-28T14:02:46.264Z,81.52
2019-05-28T14:05:21.017Z,80.24
2019-05-28T14:08:10.848Z,80.37
2019-05-28T14:11:00.837Z,80.44
2019-05-28T14:13:43.300Z,80.44
2019-05-28T14:16:33.131Z,81.65
2019-05-28T14:19:23.028Z,81.46
2019-05-28T14:22:12.876Z,82.95
2019-05-28T14:24:43.460Z,81.60
2019-05-28T14:27:33.482Z,82.58
2019-05-28T14:33:25.530Z,82.29
2019-05-28T14:36:15.878Z,81.33
2019-05-28T14:39:01.449Z,80.75
2019-05-28T14:41:32.847Z,81.22
2019-05-28T14:44:22.849Z,81.48
2019-05-28T14:47:12.717Z,82.98
2019-05-28T14:50:02.609Z,83.13
2019-05-28T14:52:52.511Z,82.72
2019-05-28T14:55:23.599Z,82.46
2019-05-28T14:58:14.234Z,82.42
2019-05-28T15:01:24.048Z,81.42
2019-05-28T15:04:13.944Z,81.27
2019-05-28T15:07:03.820Z,81.68
2019-05-28T15:09:53.705Z,81.32
2019-05-28T15:12:24.300Z,81.29
2019-05-28T15:18:30.814Z,81.68
2019-05-28T15:21:20.591Z,82.39
2019-05-28T15:24:10.517Z,82.39
2019-05-28T15:27:00.349Z,82.41
2019-05-28T15:29:50.185Z,82.08
2019-05-28T15:32:20.826Z,81.82
2019-05-28T15:35:11.081Z,81.43
2019-05-28T15:38:00.921Z,81.65
2019-05-28T15:40:52.279Z,81.76
2019-05-28T15:43:42.469Z,80.82
2019-05-28T15:46:12.963Z,81.44
2019-05-28T15:49:02.986Z,81.69
2019-05-28T15:52:07.019Z,82.25
2019-05-28T15:54:44.984Z,81.47
2019-05-28T15:57:15.887Z,82.42
2019-05-28T16:03:27.610Z,81.77
2019-05-28T16:06:00.889Z,81.60
2019-05-28T16:08:50.892Z,81.83
2019-05-28T16:11:21.823Z,82.57
2019-05-28T16:14:11.751Z,82.68
2019-05-28T16:17:01.567Z,82.50
2019-05-28T16:19:51.454Z,82.55
2019-05-28T16:22:21.940Z,83.68
2019-05-28T16:25:51.140Z,83.42
2019-05-28T16:28:40.985Z,83.54
2019-05-28T16:31:30.894Z,83.26
2019-05-28T16:34:20.880Z,83.30
2019-05-28T16:37:11.209Z,83.89
2019-05-28T16:40:13.940Z,83.26
2019-05-28T16:42:44.537Z,83.24
2019-05-28T16:45:34.519Z,84.01
2019-05-28T16:48:24.327Z,84.14
2019-05-28T16:51:14.190Z,85.21
2019-05-28T16:54:18.159Z,84.87
2019-05-28T16:56:47.195Z,85.38
2019-05-28T16:59:37.040Z,86.89
2019-05-28T17:02:26.864Z,87.28
2019-05-28T17:04:57.368Z,88.23
2019-05-28T17:07:47.232Z,88.19
2019-05-28T17:10:37.092Z,88.74
2019-05-28T17:13:26.967Z,88.90
2019-05-28T17:16:17.011Z,89.56
2019-05-28T17:19:06.925Z,89.33
2019-05-28T17:21:37.332Z,89.84
2019-05-28T17:24:27.173Z,90.75
2019-05-28T17:27:16.978Z,90.59
2019-05-28T17:30:18.997Z,89.98
2019-05-28T17:32:58.583Z,90.77
2019-05-28T17:35:48.414Z,91.36
2019-05-28T17:38:38.269Z,91.56
2019-05-28T17:41:28.041Z,91.23
2019-05-28T17:44:17.900Z,91.25
2019-05-28T17:46:48.470Z,91.14
2019-05-28T17:49:38.470Z,91.78
2019-05-28T17:52:28.709Z,92.48
2019-05-28T17:55:18.537Z,93.01
2019-05-28T17:58:08.434Z,93.13
2019-05-28T18:00:58.326Z,92.88
2019-05-28T18:03:48.248Z,92.10
2019-05-28T18:06:38.079Z,92.13
2019-05-28T18:09:27.997Z,92.17
2019-05-28T18:12:36.864Z,92.85
2019-05-28T18:15:45.634Z,94.18
2019-05-28T18:18:35.437Z,94.49
2019-05-28T18:21:26.003Z,95.71
2019-05-28T18:24:16.009Z,96.44
2019-05-28T18:27:05.905Z,96.19
2019-05-28T18:29:55.780Z,95.98
2019-05-28T18:32:45.856Z,95.95
2019-05-28T18:35:35.785Z,95.50
2019-05-28T18:38:25.667Z,96.05
2019-05-28T18:41:21.583Z,96.39
2019-05-28T18:44:01.434Z,96.17
2019-05-28T18:49:41.563Z,95.36
2019-05-28T18:52:31.502Z,95.97
2019-05-28T18:55:23.642Z,96.28
2019-05-28T18:58:13.230Z,96.01
2019-05-28T19:01:03.126Z,95.25
2019-05-28T19:03:52.973Z,95.10
2019-05-28T19:06:42.935Z,95.30
2019-05-28T19:09:32.831Z,95.73
2019-05-28T19:12:22.687Z,95.57
2019-05-28T19:15:33.075Z,94.81
2019-05-28T19:18:22.898Z,94.63
2019-05-28T19:21:12.771Z,94.94
2019-05-28T19:24:02.604Z,94.84
2019-05-28T19:26:53.085Z,95.37
2019-05-28T19:29:42.876Z,95.36
2019-05-28T19:32:32.667Z,95.51
2019-05-28T19:35:22.518Z,95.88
2019-05-28T19:38:12.688Z,96.85
2019-05-28T19:41:03.100Z,96.95
2019-05-28T19:43:52.944Z,97.94
2019-05-28T19:46:42.795Z,98.46
2019-05-28T19:49:13.210Z,98.81
2019-05-28T19:52:03.121Z,98.99
2019-05-28T19:54:33.938Z,99.17
2019-05-28T19:57:23.717Z,99.35
2019-05-28T20:00:13.844Z,99.08
2019-05-28T20:03:03.672Z,99.50
2019-05-28T20:05:34.077Z,99.04
2019-05-28T20:08:23.926Z,98.49
2019-05-28T20:11:13.734Z,97.91
2019-05-28T20:13:45.884Z,97.44
2019-05-28T20:16:35.673Z,97.43
2019-05-28T20:19:25.468Z,97.84
2019-05-28T20:22:15.308Z,98.59
2019-05-28T20:25:48.482Z,99.05
2019-05-28T20:28:29.282Z,99.32
2019-05-28T20:31:19.082Z,99.14
2019-05-28T20:34:09.401Z,98.87
2019-05-28T20:36:46.517Z,98.65
2019-05-28T20:39:36.318Z,98.59
2019-05-28T20:42:27.557Z,99.38
2019-05-28T20:48:33.387Z,100.00
2019-05-28T20:51:23.301Z,100.00
2019-05-28T20:54:13.406Z,100.00
2019-05-28T20:57:03.231Z,100.00
2019-05-28T20:59:53.668Z,100.00
2019-05-28T21:02:44.643Z,100.00
2019-05-28T21:05:34.519Z,100.00
2019-05-28T21:08:24.343Z,100.00
2019-05-28T21:11:14.229Z,100.00
2019-05-28T21:14:04.158Z,100.00
2019-05-28T21:16:55.074Z,100.00
2019-05-28T21:19:45.508Z,100.00
2019-05-28T21:22:35.324Z,100.00
2019-05-28T21:25:25.181Z,100.00
2019-05-28T21:28:15.191Z,99.30
2019-05-28T21:31:05.002Z,98.80
2019-05-28T21:33:55.120Z,98.64
2019-05-28T21:36:44.995Z,98.54
2019-05-28T21:39:18.708Z,98.55
2019-05-28T21:42:08.904Z,98.34
2019-05-28T21:45:02.542Z,98.56
2019-05-28T21:47:54.330Z,98.21
2019-05-28T21:50:37.871Z,97.81
2019-05-28T21:53:27.888Z,97.88
2019-05-28T21:56:17.788Z,97.21
2019-05-28T21:58:48.568Z,97.33
2019-05-28T22:02:17.885Z,96.63
2019-05-28T22:08:23.123Z,95.03
2019-05-28T22:14:02.229Z,93.99
2019-05-28T22:16:48.980Z,93.62
2019-05-28T22:19:38.968Z,92.88
2019-05-28T22:22:28.800Z,92.85
2019-05-28T22:25:18.678Z,93.22
2019-05-28T22:28:08.588Z,92.67
2019-05-28T22:30:59.480Z,92.07
2019-05-28T22:33:50.371Z,91.14
2019-05-28T22:42:34.040Z,91.43
2019-05-28T22:45:23.803Z,91.52
2019-05-28T22:48:16.897Z,91.44
2019-05-28T22:51:17.478Z,91.68
2019-05-28T22:54:08.025Z,90.49
